sensor_id;sensor_type;location;lat;lon;timestamp;P1;durP1;ratioP1;P2;durP2;ratioP2
23140;SDS011;11739;54.750;9.124;2023-08-21T00:02:13;1.10;;;1.00;;
23140;SDS011;11739;54.750;9.124;2023-08-21T00:04:38;1.10;;;1.00;;
23140;SDS011;11739;54.750;9.124;2023-08-21T00:07:04;1.38;;;1.10;;
23140;SDS011;11739;54.750;9.124;2023-08-21T00:09:29;2.47;;;0.95;;
23140;SDS011;11739;54.750;9.124;2023-08-21T00:11:54;1.17;;;1.00;;
23140;SDS011;11739;54.750;9.124;2023-08-21T00:14:20;1.10;;;1.05;;
23140;SDS011;11739;54.750;9.124;2023-08-21T00:16:45;1.35;;;0.90;;
23140;SDS011;11739;54.750;9.124;2023-08-21T00:19:10;1.08;;;0.85;;
23140;SDS011;11739;54.750;9.124;2023-08-21T00:21:35;1.00;;;0.90;;
23140;SDS011;11739;54.750;9.124;2023-08-21T00:24:01;1.27;;;0.95;;
23140;SDS011;11739;54.750;9.124;2023-08-21T00:26:26;1.00;;;1.00;;
23140;SDS011;11739;54.750;9.124;2023-08-21T00:28:51;2.80;;;1.17;;
23140;SDS011;11739;54.750;9.124;2023-08-21T00:31:17;2.22;;;1.10;;
23140;SDS011;11739;54.750;9.124;2023-08-21T00:33:42;3.22;;;1.23;;
23140;SDS011;11739;54.750;9.124;2023-08-21T00:36:07;0.90;;;0.90;;
23140;SDS011;11739;54.750;9.124;2023-08-21T00:38:32;1.90;;;1.15;;
23140;SDS011;11739;54.750;9.124;2023-08-21T00:40:58;1.05;;;0.90;;
23140;SDS011;11739;54.750;9.124;2023-08-21T00:43:23;0.88;;;0.88;;
23140;SDS011;11739;54.750;9.124;2023-08-21T00:45:49;1.63;;;1.00;;
23140;SDS011;11739;54.750;9.124;2023-08-21T00:48:14;0.80;;;0.80;;
23140;SDS011;11739;54.750;9.124;2023-08-21T00:50:40;1.20;;;1.02;;
23140;SDS011;11739;54.750;9.124;2023-08-21T00:53:05;1.00;;;1.00;;
23140;SDS011;11739;54.750;9.124;2023-08-21T00:55:31;0.70;;;0.70;;
23140;SDS011;11739;54.750;9.124;2023-08-21T00:57:56;1.30;;;0.80;;
23140;SDS011;11739;54.750;9.124;2023-08-21T01:00:23;0.73;;;0.70;;
23140;SDS011;11739;54.750;9.124;2023-08-21T01:02:49;1.00;;;0.80;;
23140;SDS011;11739;54.750;9.124;2023-08-21T01:05:14;1.48;;;0.85;;
23140;SDS011;11739;54.750;9.124;2023-08-21T01:07:49;0.82;;;0.60;;
23140;SDS011;11739;54.750;9.124;2023-08-21T01:10:19;1.33;;;0.80;;
23140;SDS011;11739;54.750;9.124;2023-08-21T01:12:53;1.13;;;0.73;;
23140;SDS011;11739;54.750;9.124;2023-08-21T01:15:21;0.90;;;0.65;;
23140;SDS011;11739;54.750;9.124;2023-08-21T01:17:47;2.33;;;0.80;;
23140;SDS011;11739;54.750;9.124;2023-08-21T01:20:13;1.23;;;0.70;;
23140;SDS011;11739;54.750;9.124;2023-08-21T01:22:40;3.53;;;0.98;;
23140;SDS011;11739;54.750;9.124;2023-08-21T01:25:06;2.67;;;1.00;;
23140;SDS011;11739;54.750;9.124;2023-08-21T01:27:32;0.70;;;0.70;;
23140;SDS011;11739;54.750;9.124;2023-08-21T01:29:58;1.30;;;0.70;;
23140;SDS011;11739;54.750;9.124;2023-08-21T01:32:27;1.08;;;0.80;;
23140;SDS011;11739;54.750;9.124;2023-08-21T01:34:57;0.95;;;0.80;;
23140;SDS011;11739;54.750;9.124;2023-08-21T01:37:24;0.90;;;0.90;;
23140;SDS011;11739;54.750;9.124;2023-08-21T01:39:49;0.65;;;0.60;;
23140;SDS011;11739;54.750;9.124;2023-08-21T01:42:14;0.50;;;0.50;;
23140;SDS011;11739;54.750;9.124;2023-08-21T01:44:40;0.70;;;0.70;;
23140;SDS011;11739;54.750;9.124;2023-08-21T01:47:05;2.47;;;0.75;;
23140;SDS011;11739;54.750;9.124;2023-08-21T01:49:31;0.82;;;0.60;;
23140;SDS011;11739;54.750;9.124;2023-08-21T01:51:56;0.80;;;0.80;;
23140;SDS011;11739;54.750;9.124;2023-08-21T01:54:21;1.02;;;0.90;;
23140;SDS011;11739;54.750;9.124;2023-08-21T01:56:46;1.33;;;0.98;;
23140;SDS011;11739;54.750;9.124;2023-08-21T01:59:12;0.75;;;0.70;;
23140;SDS011;11739;54.750;9.124;2023-08-21T02:01:37;0.60;;;0.60;;
23140;SDS011;11739;54.750;9.124;2023-08-21T02:04:02;1.00;;;0.90;;
23140;SDS011;11739;54.750;9.124;2023-08-21T02:06:28;0.70;;;0.70;;
23140;SDS011;11739;54.750;9.124;2023-08-21T02:08:53;1.60;;;0.63;;
23140;SDS011;11739;54.750;9.124;2023-08-21T02:11:18;1.45;;;0.55;;
23140;SDS011;11739;54.750;9.124;2023-08-21T02:13:44;1.15;;;0.70;;
23140;SDS011;11739;54.750;9.124;2023-08-21T02:16:09;0.82;;;0.60;;
23140;SDS011;11739;54.750;9.124;2023-08-21T02:18:34;0.88;;;0.50;;
23140;SDS011;11739;54.750;9.124;2023-08-21T02:21:00;0.60;;;0.60;;
23140;SDS011;11739;54.750;9.124;2023-08-21T02:23:26;0.60;;;0.60;;
23140;SDS011;11739;54.750;9.124;2023-08-21T02:25:51;0.75;;;0.75;;
23140;SDS011;11739;54.750;9.124;2023-08-21T02:28:16;0.95;;;0.70;;
23140;SDS011;11739;54.750;9.124;2023-08-21T02:30:41;1.17;;;0.80;;
23140;SDS011;11739;54.750;9.124;2023-08-21T02:33:07;0.50;;;0.50;;
23140;SDS011;11739;54.750;9.124;2023-08-21T02:35:32;0.68;;;0.68;;
23140;SDS011;11739;54.750;9.124;2023-08-21T02:37:58;0.80;;;0.80;;
23140;SDS011;11739;54.750;9.124;2023-08-21T02:40:23;1.05;;;0.60;;
23140;SDS011;11739;54.750;9.124;2023-08-21T02:42:48;2.83;;;0.70;;
23140;SDS011;11739;54.750;9.124;2023-08-21T02:45:13;1.63;;;0.70;;
23140;SDS011;11739;54.750;9.124;2023-08-21T02:47:39;0.80;;;0.50;;
23140;SDS011;11739;54.750;9.124;2023-08-21T02:50:06;0.68;;;0.60;;
23140;SDS011;11739;54.750;9.124;2023-08-21T02:52:35;1.08;;;0.70;;
23140;SDS011;11739;54.750;9.124;2023-08-21T02:55:00;0.55;;;0.55;;
23140;SDS011;11739;54.750;9.124;2023-08-21T02:57:26;0.57;;;0.57;;
23140;SDS011;11739;54.750;9.124;2023-08-21T02:59:51;0.80;;;0.80;;
23140;SDS011;11739;54.750;9.124;2023-08-21T03:02:17;0.98;;;0.70;;
23140;SDS011;11739;54.750;9.124;2023-08-21T03:04:42;0.70;;;0.68;;
23140;SDS011;11739;54.750;9.124;2023-08-21T03:07:08;1.17;;;0.75;;
23140;SDS011;11739;54.750;9.124;2023-08-21T03:09:33;1.10;;;1.00;;
23140;SDS011;11739;54.750;9.124;2023-08-21T03:11:58;1.15;;;0.80;;
23140;SDS011;11739;54.750;9.124;2023-08-21T03:14:24;0.90;;;0.77;;
23140;SDS011;11739;54.750;9.124;2023-08-21T03:16:51;0.98;;;0.90;;
23140;SDS011;11739;54.750;9.124;2023-08-21T03:19:16;1.08;;;0.60;;
23140;SDS011;11739;54.750;9.124;2023-08-21T03:21:41;1.30;;;0.80;;
23140;SDS011;11739;54.750;9.124;2023-08-21T03:24:07;0.88;;;0.80;;
23140;SDS011;11739;54.750;9.124;2023-08-21T03:26:32;0.77;;;0.77;;
23140;SDS011;11739;54.750;9.124;2023-08-21T03:28:57;1.08;;;1.05;;
23140;SDS011;11739;54.750;9.124;2023-08-21T03:31:23;2.05;;;1.17;;
23140;SDS011;11739;54.750;9.124;2023-08-21T03:33:48;2.47;;;1.10;;
23140;SDS011;11739;54.750;9.124;2023-08-21T03:36:13;0.95;;;0.95;;
23140;SDS011;11739;54.750;9.124;2023-08-21T03:38:39;1.05;;;1.00;;
23140;SDS011;11739;54.750;9.124;2023-08-21T03:41:04;1.20;;;1.20;;
23140;SDS011;11739;54.750;9.124;2023-08-21T03:43:29;1.30;;;1.10;;
23140;SDS011;11739;54.750;9.124;2023-08-21T03:45:54;1.00;;;1.00;;
23140;SDS011;11739;54.750;9.124;2023-08-21T03:48:20;1.00;;;0.90;;
23140;SDS011;11739;54.750;9.124;2023-08-21T03:50:45;1.58;;;0.90;;
23140;SDS011;11739;54.750;9.124;2023-08-21T03:53:10;0.90;;;0.80;;
23140;SDS011;11739;54.750;9.124;2023-08-21T03:55:36;1.17;;;1.08;;
23140;SDS011;11739;54.750;9.124;2023-08-21T03:58:01;2.75;;;1.35;;
23140;SDS011;11739;54.750;9.124;2023-08-21T04:00:26;1.17;;;1.15;;
23140;SDS011;11739;54.750;9.124;2023-08-21T04:02:52;1.45;;;1.30;;
23140;SDS011;11739;54.750;9.124;2023-08-21T04:05:17;2.03;;;1.20;;
23140;SDS011;11739;54.750;9.124;2023-08-21T04:07:42;1.20;;;1.10;;
23140;SDS011;11739;54.750;9.124;2023-08-21T04:10:08;2.63;;;1.23;;
23140;SDS011;11739;54.750;9.124;2023-08-21T04:12:33;1.75;;;1.08;;
23140;SDS011;11739;54.750;9.124;2023-08-21T04:14:58;1.27;;;1.23;;
23140;SDS011;11739;54.750;9.124;2023-08-21T04:17:24;1.02;;;1.02;;
23140;SDS011;11739;54.750;9.124;2023-08-21T04:19:49;1.08;;;1.08;;
23140;SDS011;11739;54.750;9.124;2023-08-21T04:22:15;1.20;;;1.20;;
23140;SDS011;11739;54.750;9.124;2023-08-21T04:24:41;2.35;;;1.30;;
23140;SDS011;11739;54.750;9.124;2023-08-21T04:27:06;1.08;;;1.08;;
23140;SDS011;11739;54.750;9.124;2023-08-21T04:29:32;1.00;;;1.00;;
23140;SDS011;11739;54.750;9.124;2023-08-21T04:31:57;1.27;;;1.15;;
23140;SDS011;11739;54.750;9.124;2023-08-21T04:34:22;1.17;;;1.17;;
23140;SDS011;11739;54.750;9.124;2023-08-21T04:36:48;1.30;;;1.20;;
23140;SDS011;11739;54.750;9.124;2023-08-21T04:39:13;1.35;;;1.25;;
23140;SDS011;11739;54.750;9.124;2023-08-21T04:41:39;0.95;;;0.95;;
23140;SDS011;11739;54.750;9.124;2023-08-21T04:44:05;1.48;;;1.27;;
23140;SDS011;11739;54.750;9.124;2023-08-21T04:46:30;1.58;;;1.00;;
23140;SDS011;11739;54.750;9.124;2023-08-21T04:48:55;1.40;;;1.30;;
23140;SDS011;11739;54.750;9.124;2023-08-21T04:51:20;1.00;;;1.00;;
23140;SDS011;11739;54.750;9.124;2023-08-21T04:53:46;1.25;;;1.10;;
23140;SDS011;11739;54.750;9.124;2023-08-21T04:56:11;1.13;;;1.10;;
23140;SDS011;11739;54.750;9.124;2023-08-21T04:58:36;0.90;;;0.90;;
23140;SDS011;11739;54.750;9.124;2023-08-21T05:01:02;1.20;;;1.10;;
23140;SDS011;11739;54.750;9.124;2023-08-21T05:03:29;0.90;;;0.90;;
23140;SDS011;11739;54.750;9.124;2023-08-21T05:05:55;1.00;;;1.00;;
23140;SDS011;11739;54.750;9.124;2023-08-21T05:08:24;1.17;;;1.13;;
23140;SDS011;11739;54.750;9.124;2023-08-21T05:10:54;1.30;;;1.20;;
23140;SDS011;11739;54.750;9.124;2023-08-21T05:13:20;1.35;;;1.10;;
23140;SDS011;11739;54.750;9.124;2023-08-21T05:15:50;1.02;;;0.88;;
23140;SDS011;11739;54.750;9.124;2023-08-21T05:18:19;1.55;;;1.15;;
23140;SDS011;11739;54.750;9.124;2023-08-21T05:20:45;1.45;;;1.15;;
23140;SDS011;11739;54.750;9.124;2023-08-21T05:23:10;1.00;;;1.00;;
23140;SDS011;11739;54.750;9.124;2023-08-21T05:25:35;1.90;;;1.20;;
23140;SDS011;11739;54.750;9.124;2023-08-21T05:28:01;1.23;;;1.10;;
23140;SDS011;11739;54.750;9.124;2023-08-21T05:30:26;1.17;;;1.00;;
23140;SDS011;11739;54.750;9.124;2023-08-21T05:32:52;1.90;;;1.15;;
23140;SDS011;11739;54.750;9.124;2023-08-21T05:35:17;1.00;;;1.00;;
23140;SDS011;11739;54.750;9.124;2023-08-21T05:37:42;1.58;;;1.10;;
23140;SDS011;11739;54.750;9.124;2023-08-21T05:40:08;1.38;;;1.20;;
23140;SDS011;11739;54.750;9.124;2023-08-21T05:42:33;2.50;;;1.30;;
23140;SDS011;11739;54.750;9.124;2023-08-21T05:44:58;3.35;;;1.00;;
23140;SDS011;11739;54.750;9.124;2023-08-21T05:47:23;1.75;;;1.42;;
23140;SDS011;11739;54.750;9.124;2023-08-21T05:49:49;3.60;;;1.40;;
23140;SDS011;11739;54.750;9.124;2023-08-21T05:52:14;2.30;;;1.45;;
23140;SDS011;11739;54.750;9.124;2023-08-21T05:54:39;1.40;;;1.23;;
23140;SDS011;11739;54.750;9.124;2023-08-21T05:57:05;1.13;;;1.05;;
23140;SDS011;11739;54.750;9.124;2023-08-21T05:59:30;1.90;;;1.23;;
23140;SDS011;11739;54.750;9.124;2023-08-21T06:01:56;1.70;;;1.27;;
23140;SDS011;11739;54.750;9.124;2023-08-21T06:04:22;2.45;;;1.40;;
23140;SDS011;11739;54.750;9.124;2023-08-21T06:06:47;2.58;;;1.40;;
23140;SDS011;11739;54.750;9.124;2023-08-21T06:09:12;2.30;;;1.50;;
23140;SDS011;11739;54.750;9.124;2023-08-21T06:11:38;2.47;;;1.50;;
23140;SDS011;11739;54.750;9.124;2023-08-21T06:14:03;2.85;;;1.73;;
23140;SDS011;11739;54.750;9.124;2023-08-21T06:16:28;2.97;;;2.00;;
23140;SDS011;11739;54.750;9.124;2023-08-21T06:18:53;4.38;;;1.83;;
23140;SDS011;11739;54.750;9.124;2023-08-21T06:21:19;2.20;;;1.70;;
23140;SDS011;11739;54.750;9.124;2023-08-21T06:23:44;4.93;;;1.80;;
23140;SDS011;11739;54.750;9.124;2023-08-21T06:26:09;3.63;;;1.88;;
23140;SDS011;11739;54.750;9.124;2023-08-21T06:28:35;2.53;;;1.38;;
23140;SDS011;11739;54.750;9.124;2023-08-21T06:31:00;2.80;;;1.60;;
23140;SDS011;11739;54.750;9.124;2023-08-21T06:33:25;2.00;;;1.38;;
23140;SDS011;11739;54.750;9.124;2023-08-21T06:35:50;2.90;;;1.90;;
23140;SDS011;11739;54.750;9.124;2023-08-21T06:38:16;6.53;;;2.67;;
23140;SDS011;11739;54.750;9.124;2023-08-21T06:40:41;4.07;;;2.40;;
23140;SDS011;11739;54.750;9.124;2023-08-21T06:43:06;4.13;;;2.42;;
23140;SDS011;11739;54.750;9.124;2023-08-21T06:45:32;4.03;;;2.60;;
23140;SDS011;11739;54.750;9.124;2023-08-21T06:47:57;6.22;;;2.88;;
23140;SDS011;11739;54.750;9.124;2023-08-21T06:50:22;6.20;;;3.10;;
23140;SDS011;11739;54.750;9.124;2023-08-21T06:52:48;6.82;;;3.00;;
23140;SDS011;11739;54.750;9.124;2023-08-21T06:55:13;6.55;;;3.28;;
23140;SDS011;11739;54.750;9.124;2023-08-21T06:57:38;4.18;;;2.70;;
23140;SDS011;11739;54.750;9.124;2023-08-21T07:00:05;7.15;;;2.72;;
23140;SDS011;11739;54.750;9.124;2023-08-21T07:02:30;6.13;;;2.83;;
23140;SDS011;11739;54.750;9.124;2023-08-21T07:04:56;4.80;;;2.72;;
23140;SDS011;11739;54.750;9.124;2023-08-21T07:07:21;6.82;;;3.10;;
23140;SDS011;11739;54.750;9.124;2023-08-21T07:09:46;4.15;;;2.60;;
23140;SDS011;11739;54.750;9.124;2023-08-21T07:12:12;4.68;;;2.60;;
23140;SDS011;11739;54.750;9.124;2023-08-21T07:14:37;5.60;;;3.03;;
23140;SDS011;11739;54.750;9.124;2023-08-21T07:17:02;5.25;;;2.78;;
23140;SDS011;11739;54.750;9.124;2023-08-21T07:19:28;6.15;;;2.65;;
23140;SDS011;11739;54.750;9.124;2023-08-21T07:21:53;4.32;;;2.33;;
23140;SDS011;11739;54.750;9.124;2023-08-21T07:24:18;5.82;;;2.50;;
23140;SDS011;11739;54.750;9.124;2023-08-21T07:26:44;5.93;;;2.38;;
23140;SDS011;11739;54.750;9.124;2023-08-21T07:29:09;5.03;;;2.40;;
23140;SDS011;11739;54.750;9.124;2023-08-21T07:31:34;4.63;;;2.25;;
23140;SDS011;11739;54.750;9.124;2023-08-21T07:34:00;4.38;;;2.33;;
23140;SDS011;11739;54.750;9.124;2023-08-21T07:36:25;6.07;;;2.60;;
23140;SDS011;11739;54.750;9.124;2023-08-21T07:38:50;6.07;;;2.50;;
23140;SDS011;11739;54.750;9.124;2023-08-21T07:41:15;5.88;;;2.40;;
23140;SDS011;11739;54.750;9.124;2023-08-21T07:43:41;5.97;;;2.35;;
23140;SDS011;11739;54.750;9.124;2023-08-21T07:46:10;3.28;;;2.17;;
23140;SDS011;11739;54.750;9.124;2023-08-21T07:48:36;4.07;;;2.17;;
23140;SDS011;11739;54.750;9.124;2023-08-21T07:51:01;5.47;;;2.25;;
23140;SDS011;11739;54.750;9.124;2023-08-21T07:53:26;5.55;;;2.10;;
23140;SDS011;11739;54.750;9.124;2023-08-21T07:55:52;7.03;;;2.80;;
23140;SDS011;11739;54.750;9.124;2023-08-21T07:58:18;5.13;;;2.30;;
23140;SDS011;11739;54.750;9.124;2023-08-21T08:00:43;5.93;;;2.30;;
23140;SDS011;11739;54.750;9.124;2023-08-21T08:03:09;5.90;;;2.20;;
23140;SDS011;11739;54.750;9.124;2023-08-21T08:05:34;3.80;;;2.17;;
23140;SDS011;11739;54.750;9.124;2023-08-21T08:08:00;5.75;;;2.40;;
23140;SDS011;11739;54.750;9.124;2023-08-21T08:10:26;3.47;;;1.88;;
23140;SDS011;11739;54.750;9.124;2023-08-21T08:12:51;4.00;;;1.73;;
23140;SDS011;11739;54.750;9.124;2023-08-21T08:15:17;2.95;;;1.98;;
23140;SDS011;11739;54.750;9.124;2023-08-21T08:17:42;3.88;;;1.92;;
23140;SDS011;11739;54.750;9.124;2023-08-21T08:20:08;4.25;;;2.00;;
23140;SDS011;11739;54.750;9.124;2023-08-21T08:22:34;3.85;;;2.10;;
23140;SDS011;11739;54.750;9.124;2023-08-21T08:24:59;5.20;;;2.50;;
23140;SDS011;11739;54.750;9.124;2023-08-21T08:27:24;3.53;;;2.13;;
23140;SDS011;11739;54.750;9.124;2023-08-21T08:29:50;5.68;;;2.35;;
23140;SDS011;11739;54.750;9.124;2023-08-21T08:32:15;4.30;;;2.20;;
23140;SDS011;11739;54.750;9.124;2023-08-21T08:34:40;5.38;;;2.05;;
23140;SDS011;11739;54.750;9.124;2023-08-21T08:37:06;4.57;;;2.10;;
23140;SDS011;11739;54.750;9.124;2023-08-21T08:39:31;4.32;;;1.95;;
23140;SDS011;11739;54.750;9.124;2023-08-21T08:41:58;3.40;;;1.90;;
23140;SDS011;11739;54.750;9.124;2023-08-21T08:44:25;4.82;;;2.10;;
23140;SDS011;11739;54.750;9.124;2023-08-21T08:46:50;4.70;;;2.00;;
23140;SDS011;11739;54.750;9.124;2023-08-21T08:49:16;3.70;;;1.95;;
23140;SDS011;11739;54.750;9.124;2023-08-21T08:51:41;3.80;;;1.80;;
23140;SDS011;11739;54.750;9.124;2023-08-21T08:54:07;5.05;;;2.00;;
23140;SDS011;11739;54.750;9.124;2023-08-21T08:56:33;5.90;;;2.03;;
23140;SDS011;11739;54.750;9.124;2023-08-21T08:58:58;5.85;;;2.17;;
23140;SDS011;11739;54.750;9.124;2023-08-21T09:01:23;4.70;;;1.85;;
23140;SDS011;11739;54.750;9.124;2023-08-21T09:03:49;4.43;;;1.83;;
23140;SDS011;11739;54.750;9.124;2023-08-21T09:06:14;3.72;;;1.60;;
23140;SDS011;11739;54.750;9.124;2023-08-21T09:08:42;3.60;;;1.58;;
23140;SDS011;11739;54.750;9.124;2023-08-21T09:11:18;4.05;;;1.63;;
23140;SDS011;11739;54.750;9.124;2023-08-21T09:13:43;6.35;;;1.80;;
23140;SDS011;11739;54.750;9.124;2023-08-21T09:16:08;3.45;;;1.60;;
23140;SDS011;11739;54.750;9.124;2023-08-21T09:18:34;3.33;;;1.48;;
23140;SDS011;11739;54.750;9.124;2023-08-21T09:21:01;4.63;;;1.67;;
23140;SDS011;11739;54.750;9.124;2023-08-21T09:23:27;4.70;;;1.70;;
23140;SDS011;11739;54.750;9.124;2023-08-21T09:25:53;3.30;;;1.40;;
23140;SDS011;11739;54.750;9.124;2023-08-21T09:28:19;4.82;;;1.73;;
23140;SDS011;11739;54.750;9.124;2023-08-21T09:30:52;2.58;;;1.33;;
23140;SDS011;11739;54.750;9.124;2023-08-21T09:33:22;4.05;;;1.40;;
23140;SDS011;11739;54.750;9.124;2023-08-21T09:35:48;5.60;;;1.60;;
23140;SDS011;11739;54.750;9.124;2023-08-21T09:38:14;2.83;;;1.30;;
23140;SDS011;11739;54.750;9.124;2023-08-21T09:40:43;4.00;;;1.70;;
23140;SDS011;11739;54.750;9.124;2023-08-21T09:43:10;4.63;;;1.42;;
23140;SDS011;11739;54.750;9.124;2023-08-21T09:45:35;4.32;;;1.70;;
23140;SDS011;11739;54.750;9.124;2023-08-21T09:48:00;2.90;;;1.40;;
23140;SDS011;11739;54.750;9.124;2023-08-21T09:50:28;3.92;;;1.52;;
23140;SDS011;11739;54.750;9.124;2023-08-21T09:52:54;3.13;;;1.38;;
23140;SDS011;11739;54.750;9.124;2023-08-21T09:55:21;2.72;;;1.40;;
23140;SDS011;11739;54.750;9.124;2023-08-21T09:57:47;2.15;;;1.17;;
23140;SDS011;11739;54.750;9.124;2023-08-21T10:00:13;4.13;;;1.50;;
23140;SDS011;11739;54.750;9.124;2023-08-21T10:02:39;4.10;;;1.60;;
23140;SDS011;11739;54.750;9.124;2023-08-21T10:05:04;2.92;;;1.58;;
23140;SDS011;11739;54.750;9.124;2023-08-21T10:07:29;3.25;;;1.40;;
23140;SDS011;11739;54.750;9.124;2023-08-21T10:09:55;4.45;;;1.60;;
23140;SDS011;11739;54.750;9.124;2023-08-21T10:12:21;2.30;;;1.13;;
23140;SDS011;11739;54.750;9.124;2023-08-21T10:14:46;3.20;;;1.50;;
23140;SDS011;11739;54.750;9.124;2023-08-21T10:17:12;2.30;;;1.27;;
23140;SDS011;11739;54.750;9.124;2023-08-21T10:19:37;3.25;;;1.30;;
23140;SDS011;11739;54.750;9.124;2023-08-21T10:22:02;4.55;;;1.60;;
23140;SDS011;11739;54.750;9.124;2023-08-21T10:24:28;3.95;;;1.50;;
23140;SDS011;11739;54.750;9.124;2023-08-21T10:26:59;3.08;;;1.40;;
23140;SDS011;11739;54.750;9.124;2023-08-21T10:29:25;2.55;;;1.30;;
23140;SDS011;11739;54.750;9.124;2023-08-21T10:32:01;3.95;;;1.38;;
23140;SDS011;11739;54.750;9.124;2023-08-21T10:34:51;3.47;;;1.33;;
23140;SDS011;11739;54.750;9.124;2023-08-21T10:37:16;4.97;;;1.38;;
23140;SDS011;11739;54.750;9.124;2023-08-21T10:39:55;3.20;;;1.08;;
23140;SDS011;11739;54.750;9.124;2023-08-21T10:42:21;3.63;;;1.02;;
23140;SDS011;11739;54.750;9.124;2023-08-21T10:45:14;4.18;;;1.50;;
23140;SDS011;11739;54.750;9.124;2023-08-21T10:47:39;2.65;;;1.20;;
23140;SDS011;11739;54.750;9.124;2023-08-21T10:50:07;4.32;;;1.17;;
23140;SDS011;11739;54.750;9.124;2023-08-21T10:52:37;1.98;;;1.13;;
23140;SDS011;11739;54.750;9.124;2023-08-21T10:55:03;2.03;;;1.20;;
23140;SDS011;11739;54.750;9.124;2023-08-21T10:57:30;2.55;;;1.17;;
23140;SDS011;11739;54.750;9.124;2023-08-21T11:00:00;3.95;;;1.20;;
23140;SDS011;11739;54.750;9.124;2023-08-21T11:02:27;2.85;;;1.20;;
23140;SDS011;11739;54.750;9.124;2023-08-21T11:04:53;3.20;;;1.55;;
23140;SDS011;11739;54.750;9.124;2023-08-21T11:07:18;2.33;;;1.13;;
23140;SDS011;11739;54.750;9.124;2023-08-21T11:09:44;1.90;;;0.90;;
23140;SDS011;11739;54.750;9.124;2023-08-21T11:12:11;3.53;;;1.23;;
23140;SDS011;11739;54.750;9.124;2023-08-21T11:14:37;1.70;;;1.10;;
23140;SDS011;11739;54.750;9.124;2023-08-21T11:17:04;4.40;;;1.27;;
23140;SDS011;11739;54.750;9.124;2023-08-21T11:19:30;2.70;;;1.17;;
23140;SDS011;11739;54.750;9.124;2023-08-21T11:21:56;4.10;;;1.42;;
23140;SDS011;11739;54.750;9.124;2023-08-21T11:24:21;2.28;;;1.33;;
23140;SDS011;11739;54.750;9.124;2023-08-21T11:26:47;4.70;;;1.42;;
23140;SDS011;11739;54.750;9.124;2023-08-21T11:29:12;2.15;;;1.35;;
23140;SDS011;11739;54.750;9.124;2023-08-21T11:31:37;2.75;;;1.25;;
23140;SDS011;11739;54.750;9.124;2023-08-21T11:34:02;2.92;;;1.33;;
23140;SDS011;11739;54.750;9.124;2023-08-21T11:36:28;4.32;;;1.40;;
23140;SDS011;11739;54.750;9.124;2023-08-21T11:39:00;3.72;;;1.23;;
23140;SDS011;11739;54.750;9.124;2023-08-21T11:41:26;3.03;;;1.17;;
23140;SDS011;11739;54.750;9.124;2023-08-21T11:43:51;3.90;;;1.33;;
23140;SDS011;11739;54.750;9.124;2023-08-21T11:46:16;3.40;;;1.23;;
23140;SDS011;11739;54.750;9.124;2023-08-21T11:48:43;3.63;;;1.55;;
23140;SDS011;11739;54.750;9.124;2023-08-21T11:51:09;3.42;;;1.25;;
23140;SDS011;11739;54.750;9.124;2023-08-21T11:56:03;3.92;;;1.27;;
23140;SDS011;11739;54.750;9.124;2023-08-21T11:58:36;3.75;;;1.48;;
23140;SDS011;11739;54.750;9.124;2023-08-21T12:01:03;2.78;;;1.23;;
23140;SDS011;11739;54.750;9.124;2023-08-21T12:03:28;3.53;;;1.70;;
23140;SDS011;11739;54.750;9.124;2023-08-21T12:05:54;4.28;;;1.50;;
23140;SDS011;11739;54.750;9.124;2023-08-21T12:08:19;3.28;;;1.30;;
23140;SDS011;11739;54.750;9.124;2023-08-21T12:10:45;5.00;;;1.52;;
23140;SDS011;11739;54.750;9.124;2023-08-21T12:13:15;4.45;;;1.50;;
23140;SDS011;11739;54.750;9.124;2023-08-21T12:15:40;3.58;;;1.60;;
23140;SDS011;11739;54.750;9.124;2023-08-21T12:18:05;3.65;;;1.45;;
23140;SDS011;11739;54.750;9.124;2023-08-21T12:20:31;2.60;;;1.30;;
23140;SDS011;11739;54.750;9.124;2023-08-21T12:22:56;2.92;;;1.30;;
23140;SDS011;11739;54.750;9.124;2023-08-21T12:25:21;3.40;;;1.27;;
23140;SDS011;11739;54.750;9.124;2023-08-21T12:27:47;2.90;;;1.20;;
23140;SDS011;11739;54.750;9.124;2023-08-21T12:30:12;3.38;;;1.65;;
23140;SDS011;11739;54.750;9.124;2023-08-21T12:32:37;2.65;;;1.35;;
23140;SDS011;11739;54.750;9.124;2023-08-21T12:35:02;5.43;;;1.60;;
23140;SDS011;11739;54.750;9.124;2023-08-21T12:37:28;4.93;;;1.70;;
23140;SDS011;11739;54.750;9.124;2023-08-21T12:39:53;3.03;;;1.20;;
23140;SDS011;11739;54.750;9.124;2023-08-21T12:42:19;2.78;;;1.30;;
23140;SDS011;11739;54.750;9.124;2023-08-21T12:44:44;2.40;;;1.38;;
23140;SDS011;11739;54.750;9.124;2023-08-21T12:47:09;5.72;;;1.40;;
23140;SDS011;11739;54.750;9.124;2023-08-21T12:49:34;3.95;;;1.50;;
23140;SDS011;11739;54.750;9.124;2023-08-21T12:52:00;3.58;;;1.63;;
23140;SDS011;11739;54.750;9.124;2023-08-21T12:54:25;4.50;;;1.20;;
23140;SDS011;11739;54.750;9.124;2023-08-21T12:56:50;4.60;;;1.50;;
23140;SDS011;11739;54.750;9.124;2023-08-21T12:59:16;3.70;;;1.40;;
23140;SDS011;11739;54.750;9.124;2023-08-21T13:01:41;3.75;;;1.70;;
23140;SDS011;11739;54.750;9.124;2023-08-21T13:04:06;3.63;;;1.40;;
23140;SDS011;11739;54.750;9.124;2023-08-21T13:06:32;2.17;;;1.38;;
23140;SDS011;11739;54.750;9.124;2023-08-21T13:08:57;2.50;;;1.30;;
23140;SDS011;11739;54.750;9.124;2023-08-21T13:11:22;4.35;;;1.40;;
23140;SDS011;11739;54.750;9.124;2023-08-21T13:13:48;4.30;;;1.45;;
23140;SDS011;11739;54.750;9.124;2023-08-21T13:16:13;2.88;;;1.35;;
23140;SDS011;11739;54.750;9.124;2023-08-21T13:18:38;2.72;;;1.23;;
23140;SDS011;11739;54.750;9.124;2023-08-21T13:21:03;3.75;;;1.45;;
23140;SDS011;11739;54.750;9.124;2023-08-21T13:23:29;3.63;;;1.30;;
23140;SDS011;11739;54.750;9.124;2023-08-21T13:25:54;4.55;;;1.50;;
23140;SDS011;11739;54.750;9.124;2023-08-21T13:28:20;3.80;;;1.38;;
23140;SDS011;11739;54.750;9.124;2023-08-21T13:30:45;3.03;;;1.30;;
23140;SDS011;11739;54.750;9.124;2023-08-21T13:33:10;2.25;;;1.30;;
23140;SDS011;11739;54.750;9.124;2023-08-21T13:35:36;3.60;;;1.70;;
23140;SDS011;11739;54.750;9.124;2023-08-21T13:38:01;2.95;;;1.30;;
23140;SDS011;11739;54.750;9.124;2023-08-21T13:40:26;2.85;;;1.38;;
23140;SDS011;11739;54.750;9.124;2023-08-21T13:42:52;3.30;;;1.42;;
23140;SDS011;11739;54.750;9.124;2023-08-21T13:45:18;2.45;;;1.38;;
23140;SDS011;11739;54.750;9.124;2023-08-21T13:47:45;3.67;;;1.60;;
23140;SDS011;11739;54.750;9.124;2023-08-21T13:50:11;3.35;;;1.73;;
23140;SDS011;11739;54.750;9.124;2023-08-21T13:52:36;3.40;;;1.38;;
23140;SDS011;11739;54.750;9.124;2023-08-21T13:55:02;2.72;;;1.30;;
23140;SDS011;11739;54.750;9.124;2023-08-21T13:57:27;3.40;;;1.70;;
23140;SDS011;11739;54.750;9.124;2023-08-21T13:59:52;2.60;;;1.38;;
23140;SDS011;11739;54.750;9.124;2023-08-21T14:02:18;3.42;;;1.58;;
23140;SDS011;11739;54.750;9.124;2023-08-21T14:04:43;2.53;;;1.30;;
23140;SDS011;11739;54.750;9.124;2023-08-21T14:07:08;4.38;;;1.27;;
23140;SDS011;11739;54.750;9.124;2023-08-21T14:09:34;4.38;;;1.70;;
23140;SDS011;11739;54.750;9.124;2023-08-21T14:11:59;4.45;;;1.77;;
23140;SDS011;11739;54.750;9.124;2023-08-21T14:14:24;3.92;;;1.30;;
23140;SDS011;11739;54.750;9.124;2023-08-21T14:16:50;4.03;;;1.30;;
23140;SDS011;11739;54.750;9.124;2023-08-21T14:19:15;4.72;;;1.60;;
23140;SDS011;11739;54.750;9.124;2023-08-21T14:21:40;2.70;;;1.52;;
23140;SDS011;11739;54.750;9.124;2023-08-21T14:24:05;3.65;;;1.50;;
23140;SDS011;11739;54.750;9.124;2023-08-21T14:26:31;3.33;;;1.67;;
23140;SDS011;11739;54.750;9.124;2023-08-21T14:28:56;2.95;;;1.30;;
23140;SDS011;11739;54.750;9.124;2023-08-21T14:31:21;3.78;;;1.55;;
23140;SDS011;11739;54.750;9.124;2023-08-21T14:33:47;1.98;;;1.17;;
23140;SDS011;11739;54.750;9.124;2023-08-21T14:36:12;2.70;;;1.50;;
23140;SDS011;11739;54.750;9.124;2023-08-21T14:38:37;3.03;;;1.80;;
23140;SDS011;11739;54.750;9.124;2023-08-21T14:41:03;2.30;;;1.50;;
23140;SDS011;11739;54.750;9.124;2023-08-21T14:43:28;4.60;;;1.75;;